createdAt,value
2022-12-31T00:01:01.375Z,8.63
2022-12-31T00:03:31.833Z,8.64
2022-12-31T00:06:00.881Z,8.53
2022-12-31T00:08:27.858Z,8.50
2022-12-31T00:10:54.505Z,8.45
2022-12-31T00:13:24.015Z,8.48
2022-12-31T00:15:50.702Z,8.41
2022-12-31T00:18:23.717Z,8.42
2022-12-31T00:20:50.331Z,8.38
2022-12-31T00:23:19.592Z,8.37
2022-12-31T00:25:46.164Z,8.34
2022-12-31T00:28:15.459Z,8.34
2022-12-31T00:30:42.391Z,8.32
2022-12-31T00:33:09.023Z,8.33
2022-12-31T00:35:36.544Z,8.41
2022-12-31T00:38:11.645Z,8.45
2022-12-31T00:40:38.254Z,8.42
2022-12-31T00:43:05.058Z,8.32
2022-12-31T00:45:38.180Z,8.31
2022-12-31T00:48:08.012Z,8.30
2022-12-31T00:50:34.667Z,8.21
2022-12-31T00:53:01.299Z,8.19
2022-12-31T00:55:27.916Z,8.21
2022-12-31T00:57:54.820Z,8.27
2022-12-31T01:00:21.927Z,8.25
2022-12-31T01:02:48.668Z,8.22
2022-12-31T01:05:18.475Z,8.15
2022-12-31T01:07:47.545Z,8.13
2022-12-31T01:10:34.105Z,8.14
2022-12-31T01:13:00.723Z,8.15
2022-12-31T01:15:27.877Z,8.13
2022-12-31T01:17:54.584Z,8.13
2022-12-31T01:20:21.236Z,8.13
2022-12-31T01:22:47.837Z,8.14
2022-12-31T01:25:14.539Z,8.25
2022-12-31T01:27:42.266Z,8.34
2022-12-31T01:30:09.451Z,8.31
2022-12-31T01:32:39.191Z,8.39
2022-12-31T01:35:06.347Z,8.33
2022-12-31T01:37:38.435Z,8.30
2022-12-31T01:40:08.468Z,8.33
2022-12-31T01:42:35.099Z,8.38
2022-12-31T01:45:01.802Z,8.39
2022-12-31T01:47:40.994Z,8.51
2022-12-31T01:50:27.792Z,8.49
2022-12-31T01:53:00.800Z,8.53
2022-12-31T01:55:30.318Z,8.52
2022-12-31T01:58:11.090Z,8.59
2022-12-31T02:00:38.075Z,8.70
2022-12-31T02:03:10.466Z,8.90
2022-12-31T02:05:46.344Z,8.92
2022-12-31T02:08:13.055Z,8.92
2022-12-31T02:10:39.812Z,8.95
2022-12-31T02:13:10.107Z,8.94
2022-12-31T02:16:05.280Z,8.97
2022-12-31T02:18:51.341Z,9.09
2022-12-31T02:21:59.960Z,9.10
2022-12-31T02:24:37.140Z,9.20
2022-12-31T02:27:08.902Z,9.18
2022-12-31T02:29:56.925Z,9.17
2022-12-31T02:32:27.951Z,9.16
2022-12-31T02:34:59.805Z,9.12
2022-12-31T02:37:29.049Z,9.11
2022-12-31T02:39:56.567Z,9.15
2022-12-31T02:42:23.121Z,9.14
2022-12-31T02:44:49.756Z,9.06
2022-12-31T02:47:39.319Z,8.99
2022-12-31T02:50:16.519Z,8.95
2022-12-31T02:53:26.394Z,9.10
2022-12-31T02:56:14.777Z,9.11
2022-12-31T02:59:08.885Z,9.22
2022-12-31T03:02:01.933Z,9.25
2022-12-31T03:04:34.355Z,9.30
2022-12-31T03:07:02.721Z,9.36
2022-12-31T03:09:29.348Z,9.44
2022-12-31T03:12:14.938Z,9.46
2022-12-31T03:14:47.720Z,9.58
2022-12-31T03:17:14.402Z,9.62
2022-12-31T03:20:00.003Z,9.60
2022-12-31T03:22:32.303Z,9.60
2022-12-31T03:25:17.345Z,9.70
2022-12-31T03:27:44.775Z,9.83
2022-12-31T03:30:13.316Z,9.95
2022-12-31T03:32:40.569Z,9.87
2022-12-31T03:35:08.083Z,10.03
2022-12-31T03:37:34.666Z,10.07
2022-12-31T03:40:03.978Z,10.04
2022-12-31T03:42:37.323Z,10.03
2022-12-31T03:45:04.348Z,10.12
2022-12-31T03:47:31.167Z,10.08
2022-12-31T03:50:00.944Z,10.07
2022-12-31T03:52:27.603Z,10.01
2022-12-31T03:54:54.532Z,10.14
2022-12-31T03:57:25.418Z,10.15
2022-12-31T03:59:54.690Z,10.36
2022-12-31T04:02:28.125Z,10.38
2022-12-31T04:05:02.428Z,10.47
2022-12-31T04:07:29.098Z,10.39
2022-12-31T04:09:56.300Z,10.39
2022-12-31T04:12:22.956Z,10.42
2022-12-31T04:14:49.663Z,10.42
2022-12-31T04:17:16.316Z,10.41
2022-12-31T04:19:43.072Z,10.58
2022-12-31T04:22:13.462Z,10.66
2022-12-31T04:24:40.165Z,10.57
2022-12-31T04:27:08.034Z,10.59
2022-12-31T04:29:35.592Z,10.68
2022-12-31T04:32:09.076Z,10.68
2022-12-31T04:34:35.906Z,10.74
2022-12-31T04:37:03.181Z,10.77
2022-12-31T04:39:29.862Z,10.79
2022-12-31T04:41:56.602Z,10.86
2022-12-31T04:44:23.295Z,10.84
2022-12-31T04:46:52.847Z,10.80
2022-12-31T04:49:22.662Z,10.94
2022-12-31T04:51:49.337Z,10.91
2022-12-31T04:54:15.979Z,11.04
2022-12-31T04:56:42.776Z,10.97
2022-12-31T04:59:10.469Z,10.99
2022-12-31T05:01:38.760Z,11.00
2022-12-31T05:04:05.664Z,10.95
2022-12-31T05:06:32.856Z,10.93
2022-12-31T05:09:03.470Z,11.04
2022-12-31T05:11:30.115Z,11.01
2022-12-31T05:13:56.732Z,11.02
2022-12-31T05:16:24.436Z,11.19
2022-12-31T05:18:53.981Z,11.24
2022-12-31T05:21:21.748Z,11.28
2022-12-31T05:23:49.241Z,11.29
2022-12-31T05:26:19.766Z,11.29
2022-12-31T05:28:46.462Z,11.66
2022-12-31T05:31:13.156Z,11.69
2022-12-31T05:33:40.012Z,11.73
2022-12-31T05:36:07.212Z,11.53
2022-12-31T05:38:34.048Z,11.37
2022-12-31T05:41:02.671Z,11.15
2022-12-31T05:43:29.504Z,11.16
2022-12-31T05:46:05.700Z,11.07
2022-12-31T05:48:35.692Z,11.00
2022-12-31T05:51:02.324Z,11.02
2022-12-31T05:53:30.034Z,11.01
2022-12-31T05:55:56.647Z,10.98
2022-12-31T05:58:29.034Z,10.95
2022-12-31T06:01:02.173Z,10.92
2022-12-31T06:03:28.869Z,10.97
2022-12-31T06:05:55.499Z,11.00
2022-12-31T06:08:24.011Z,11.03
2022-12-31T06:10:50.893Z,10.98
2022-12-31T06:13:17.526Z,11.02
2022-12-31T06:15:44.138Z,11.08
2022-12-31T06:18:13.072Z,11.12
2022-12-31T06:20:39.717Z,11.14
2022-12-31T06:23:06.419Z,11.36
2022-12-31T06:25:35.393Z,11.41
2022-12-31T06:28:02.074Z,11.46
2022-12-31T06:30:34.660Z,11.60
2022-12-31T06:33:01.339Z,11.59
2022-12-31T06:35:28.039Z,11.61
2022-12-31T06:37:54.673Z,11.69
2022-12-31T06:40:21.346Z,11.79
2022-12-31T06:42:48.025Z,11.92
2022-12-31T06:45:14.720Z,12.01
2022-12-31T06:47:41.578Z,12.09
2022-12-31T06:50:13.442Z,12.17
2022-12-31T06:52:42.925Z,12.24
2022-12-31T06:55:10.636Z,12.40
2022-12-31T06:57:47.096Z,12.39
2022-12-31T07:00:14.378Z,12.52
2022-12-31T07:03:02.840Z,12.79
2022-12-31T07:05:49.940Z,12.85
2022-12-31T07:08:44.629Z,12.93
2022-12-31T07:11:32.655Z,12.88
2022-12-31T07:14:32.400Z,12.92
2022-12-31T07:17:38.288Z,12.82
2022-12-31T07:20:20.408Z,12.94
2022-12-31T07:22:47.285Z,13.01
2022-12-31T07:25:16.093Z,12.96
2022-12-31T07:28:21.077Z,12.94
2022-12-31T07:30:59.661Z,13.05
2022-12-31T07:33:44.580Z,13.16
2022-12-31T07:36:39.216Z,13.31
2022-12-31T07:39:25.930Z,13.28
2022-12-31T07:41:53.189Z,13.31
2022-12-31T07:44:56.340Z,13.40
2022-12-31T07:47:26.001Z,13.45
2022-12-31T07:49:56.461Z,13.43
2022-12-31T07:52:23.886Z,13.59
2022-12-31T07:54:50.986Z,13.56
2022-12-31T07:57:26.591Z,13.54
2022-12-31T08:00:06.989Z,13.55
2022-12-31T08:02:58.458Z,13.76
2022-12-31T08:05:40.102Z,13.79
2022-12-31T08:08:34.349Z,13.76
2022-12-31T08:11:45.962Z,13.82
2022-12-31T08:14:21.224Z,13.80
2022-12-31T08:16:55.627Z,13.86
2022-12-31T08:19:30.749Z,13.90
2022-12-31T08:22:15.763Z,13.87
2022-12-31T08:25:17.262Z,13.95
2022-12-31T08:28:14.781Z,13.92
2022-12-31T08:30:52.484Z,13.97
2022-12-31T08:33:37.636Z,14.03
2022-12-31T08:36:23.041Z,14.02
2022-12-31T08:39:20.980Z,14.04
2022-12-31T08:41:54.033Z,14.00
2022-12-31T08:44:45.042Z,14.06
2022-12-31T08:48:09.000Z,14.13
2022-12-31T08:50:36.025Z,14.14
2022-12-31T08:53:03.578Z,14.10
2022-12-31T08:55:30.731Z,14.22
2022-12-31T08:58:19.099Z,14.29
2022-12-31T09:00:55.248Z,14.28
2022-12-31T09:03:26.130Z,14.29
2022-12-31T09:06:14.030Z,14.31
2022-12-31T09:09:25.177Z,14.40
2022-12-31T09:12:06.023Z,14.56
2022-12-31T09:14:48.441Z,14.58
2022-12-31T09:17:43.941Z,14.54
2022-12-31T09:20:42.651Z,14.61
2022-12-31T09:23:10.781Z,14.69
2022-12-31T09:25:52.953Z,14.65
2022-12-31T09:28:43.405Z,14.77
2022-12-31T09:31:20.539Z,14.74
2022-12-31T09:33:59.717Z,14.67
2022-12-31T09:36:32.082Z,14.74
2022-12-31T09:39:15.806Z,14.83
2022-12-31T09:42:00.668Z,14.92
2022-12-31T09:45:03.171Z,14.93
2022-12-31T09:47:29.753Z,14.96
2022-12-31T09:49:59.293Z,14.99
2022-12-31T09:52:38.384Z,15.13
2022-12-31T09:55:07.773Z,15.10
2022-12-31T09:57:40.371Z,15.09
2022-12-31T10:00:12.030Z,15.11
2022-12-31T10:02:48.041Z,15.22
2022-12-31T10:05:35.650Z,15.30
2022-12-31T10:08:10.486Z,15.29
2022-12-31T10:11:08.561Z,15.32
2022-12-31T10:14:16.813Z,15.40
2022-12-31T10:17:06.418Z,15.38
2022-12-31T10:20:28.079Z,15.57
2022-12-31T10:23:04.470Z,15.67
2022-12-31T10:25:40.820Z,15.71
2022-12-31T10:28:45.737Z,15.71
2022-12-31T10:31:43.194Z,15.76
2022-12-31T10:34:43.268Z,15.95
2022-12-31T10:37:25.816Z,16.04
2022-12-31T10:40:04.796Z,16.12
2022-12-31T10:42:46.641Z,16.19
2022-12-31T10:45:44.442Z,16.19
2022-12-31T10:48:29.040Z,16.20
2022-12-31T10:51:20.898Z,16.20
2022-12-31T10:53:50.210Z,16.13
2022-12-31T10:56:38.655Z,16.10
2022-12-31T10:59:32.894Z,16.02
2022-12-31T11:02:27.062Z,16.00
2022-12-31T11:05:26.098Z,15.97
2022-12-31T11:08:28.991Z,15.91
2022-12-31T11:11:31.127Z,15.98
2022-12-31T11:14:39.706Z,15.96
2022-12-31T11:17:43.759Z,15.95
2022-12-31T11:20:10.826Z,15.91
2022-12-31T11:22:56.877Z,15.87
2022-12-31T11:25:30.202Z,15.98
2022-12-31T11:28:15.452Z,15.89
2022-12-31T11:31:04.108Z,15.94
2022-12-31T11:34:10.755Z,15.87
2022-12-31T11:37:14.863Z,15.88
2022-12-31T11:40:26.280Z,15.87
2022-12-31T11:43:02.551Z,15.88
2022-12-31T11:46:08.060Z,16.10
2022-12-31T11:48:59.564Z,16.30
2022-12-31T11:51:32.330Z,16.36
2022-12-31T11:54:37.390Z,16.41
2022-12-31T11:57:36.829Z,16.51
2022-12-31T12:00:14.888Z,16.55
2022-12-31T12:03:01.612Z,16.58
2022-12-31T12:05:28.546Z,16.60
2022-12-31T12:07:55.519Z,16.77
2022-12-31T12:10:29.108Z,16.86
2022-12-31T12:13:00.692Z,16.92
2022-12-31T12:15:35.594Z,16.92
2022-12-31T12:18:09.768Z,16.91
2022-12-31T12:20:41.044Z,16.99
2022-12-31T12:23:17.743Z,17.02
2022-12-31T12:25:45.044Z,17.02
2022-12-31T12:28:26.857Z,17.00
2022-12-31T12:30:59.957Z,16.97
2022-12-31T12:33:29.797Z,16.88
2022-12-31T12:36:19.748Z,16.84
2022-12-31T12:38:47.541Z,16.79
2022-12-31T12:41:25.205Z,16.85
2022-12-31T12:44:03.186Z,16.85
2022-12-31T12:46:47.754Z,16.93
2022-12-31T12:49:27.877Z,16.91
2022-12-31T12:52:16.085Z,16.95
2022-12-31T12:55:04.231Z,17.03
2022-12-31T12:57:50.625Z,16.96
2022-12-31T13:00:21.653Z,16.98
2022-12-31T13:03:09.904Z,16.95
2022-12-31T13:05:45.269Z,16.94
2022-12-31T13:08:37.199Z,16.99
2022-12-31T13:11:06.544Z,17.03
2022-12-31T13:13:43.955Z,17.03
2022-12-31T13:16:50.651Z,17.10
2022-12-31T13:19:29.033Z,17.06
2022-12-31T13:22:01.364Z,17.06
2022-12-31T13:24:27.906Z,17.09
2022-12-31T13:27:24.121Z,17.18
2022-12-31T13:29:52.898Z,17.12
2022-12-31T13:32:24.364Z,17.17
2022-12-31T13:34:56.359Z,17.15
2022-12-31T13:37:38.063Z,17.11
2022-12-31T13:40:21.162Z,17.15
2022-12-31T13:43:01.241Z,17.07
2022-12-31T13:45:38.942Z,17.05
2022-12-31T13:48:12.268Z,17.08
2022-12-31T13:50:46.784Z,17.04
2022-12-31T13:53:27.605Z,17.12
2022-12-31T13:56:03.775Z,17.04
2022-12-31T13:58:40.047Z,17.06
2022-12-31T14:01:34.007Z,17.07
2022-12-31T14:04:28.337Z,17.00
2022-12-31T14:07:02.665Z,17.04
2022-12-31T14:09:33.790Z,17.10
2022-12-31T14:12:08.586Z,17.00
2022-12-31T14:14:54.144Z,17.02
2022-12-31T14:17:51.053Z,17.11
2022-12-31T14:20:17.677Z,17.18
2022-12-31T14:22:56.373Z,17.02
2022-12-31T14:25:29.185Z,16.89
2022-12-31T14:27:59.607Z,16.84
2022-12-31T14:30:31.272Z,16.79
2022-12-31T14:33:18.526Z,16.72
2022-12-31T14:35:51.560Z,16.72
2022-12-31T14:38:31.044Z,16.60
2022-12-31T14:41:15.684Z,16.62
2022-12-31T14:43:58.980Z,16.68
2022-12-31T14:46:35.568Z,16.72
2022-12-31T14:49:13.440Z,16.62
2022-12-31T14:51:40.141Z,16.47
2022-12-31T14:54:28.926Z,16.26
2022-12-31T14:57:10.368Z,16.18
2022-12-31T14:59:40.487Z,16.06
2022-12-31T15:02:38.458Z,16.08
2022-12-31T15:05:22.491Z,16.02
2022-12-31T15:07:55.977Z,16.01
2022-12-31T15:10:59.826Z,16.12
2022-12-31T15:13:50.058Z,16.06
2022-12-31T15:16:35.116Z,16.06
2022-12-31T15:19:31.195Z,16.19
2022-12-31T15:22:30.705Z,16.26
2022-12-31T15:24:58.095Z,16.28
2022-12-31T15:27:37.716Z,16.12
2022-12-31T15:30:06.290Z,16.11
2022-12-31T15:32:40.028Z,16.12
2022-12-31T15:35:21.799Z,16.05
2022-12-31T15:38:19.795Z,16.06
2022-12-31T15:40:56.317Z,16.05
2022-12-31T15:43:57.233Z,16.04
2022-12-31T15:46:31.059Z,16.16
2022-12-31T15:49:11.775Z,16.05
2022-12-31T15:51:59.754Z,16.05
2022-12-31T15:54:42.699Z,16.12
2022-12-31T15:57:26.522Z,16.07
2022-12-31T16:00:02.168Z,16.10
2022-12-31T16:02:29.156Z,16.17
2022-12-31T16:04:56.251Z,16.06
2022-12-31T16:07:27.418Z,15.96
2022-12-31T16:09:56.367Z,15.98
2022-12-31T16:12:30.937Z,15.92
2022-12-31T16:15:00.327Z,15.91
2022-12-31T16:17:27.110Z,15.88
2022-12-31T16:19:57.246Z,15.87
2022-12-31T16:22:50.572Z,15.99
2022-12-31T16:25:30.582Z,16.13
2022-12-31T16:28:00.928Z,16.20
2022-12-31T16:30:32.305Z,16.24
2022-12-31T16:33:01.636Z,16.19
2022-12-31T16:35:37.191Z,16.16
2022-12-31T16:38:09.931Z,16.23
2022-12-31T16:40:36.658Z,16.31
2022-12-31T16:43:06.624Z,16.33
2022-12-31T16:45:38.646Z,16.36
2022-12-31T16:48:17.249Z,16.39
2022-12-31T16:50:50.792Z,16.39
2022-12-31T16:53:21.843Z,16.41
2022-12-31T16:55:55.845Z,16.48
2022-12-31T16:58:35.147Z,16.50
2022-12-31T17:01:22.549Z,16.53
2022-12-31T17:03:58.874Z,16.57
2022-12-31T17:06:28.190Z,16.63
2022-12-31T17:09:06.551Z,16.78
2022-12-31T17:11:42.082Z,16.77
2022-12-31T17:14:08.668Z,16.84
2022-12-31T17:16:38.372Z,16.74
2022-12-31T17:19:05.121Z,16.86
2022-12-31T17:21:32.896Z,16.77
2022-12-31T17:24:06.614Z,16.86
2022-12-31T17:26:37.243Z,16.85
2022-12-31T17:29:05.987Z,16.87
2022-12-31T17:31:40.947Z,16.79
2022-12-31T17:34:16.319Z,16.70
2022-12-31T17:37:01.485Z,16.84
2022-12-31T17:39:45.115Z,16.87
2022-12-31T17:42:13.877Z,16.87
2022-12-31T17:44:43.735Z,16.77
2022-12-31T17:47:15.366Z,16.79
2022-12-31T17:49:45.931Z,16.87
2022-12-31T17:52:16.203Z,16.76
2022-12-31T17:54:43.261Z,16.81
2022-12-31T17:57:22.707Z,16.81
2022-12-31T17:59:49.444Z,16.77
2022-12-31T18:02:16.219Z,16.78
2022-12-31T18:04:46.103Z,16.72
2022-12-31T18:07:12.763Z,16.56
2022-12-31T18:09:42.497Z,16.56
2022-12-31T18:12:09.895Z,16.69
2022-12-31T18:14:36.509Z,16.78
2022-12-31T18:17:03.168Z,16.73
2022-12-31T18:20:02.913Z,16.56
2022-12-31T18:22:17.452Z,16.49
2022-12-31T18:24:44.453Z,16.23
2022-12-31T18:27:20.254Z,16.12
2022-12-31T18:29:46.977Z,15.99
2022-12-31T18:32:22.622Z,16.08
2022-12-31T18:34:49.951Z,15.99
2022-12-31T18:37:21.769Z,15.99
2022-12-31T18:39:49.005Z,15.93
2022-12-31T18:42:18.658Z,15.93
2022-12-31T18:44:46.640Z,15.84
2022-12-31T18:47:18.483Z,15.93
2022-12-31T18:49:45.302Z,15.86
2022-12-31T18:52:28.664Z,15.68
2022-12-31T18:54:55.290Z,15.52
2022-12-31T18:57:21.938Z,15.45
2022-12-31T18:59:48.549Z,15.35
2022-12-31T19:02:20.287Z,15.33
2022-12-31T19:04:48.735Z,15.26
2022-12-31T19:07:15.377Z,15.35
2022-12-31T19:09:46.344Z,15.30
2022-12-31T19:12:20.844Z,15.26
2022-12-31T19:14:47.652Z,15.20
2022-12-31T19:17:14.494Z,15.14
2022-12-31T19:19:41.175Z,15.13
2022-12-31T19:22:15.015Z,15.24
2022-12-31T19:24:45.009Z,15.38
2022-12-31T19:27:11.855Z,15.44
2022-12-31T19:29:38.486Z,15.44
2022-12-31T19:32:05.535Z,15.36
2022-12-31T19:34:32.188Z,15.36
2022-12-31T19:37:10.793Z,15.29
2022-12-31T19:39:39.635Z,15.37
2022-12-31T19:42:09.129Z,15.46
2022-12-31T19:44:38.519Z,15.41
2022-12-31T19:47:05.460Z,15.35
2022-12-31T19:49:32.062Z,15.21
2022-12-31T19:51:58.682Z,15.17
2022-12-31T19:54:25.372Z,15.13
2022-12-31T19:56:52.103Z,15.14
2022-12-31T19:59:18.744Z,15.17
2022-12-31T20:01:45.727Z,15.04
2022-12-31T20:04:14.211Z,14.99
2022-12-31T20:06:40.857Z,15.07
2022-12-31T20:09:07.868Z,15.14
2022-12-31T20:11:34.701Z,15.25
2022-12-31T20:14:04.376Z,15.23
2022-12-31T20:16:31.961Z,15.22
2022-12-31T20:19:01.567Z,15.31
2022-12-31T20:21:29.752Z,15.29
2022-12-31T20:23:56.745Z,15.25
2022-12-31T20:26:24.949Z,15.24
2022-12-31T20:28:54.522Z,15.15
2022-12-31T20:31:25.867Z,15.23
2022-12-31T20:33:54.371Z,15.21
2022-12-31T20:36:25.847Z,15.20
2022-12-31T20:38:52.553Z,15.19
2022-12-31T20:41:26.286Z,15.06
2022-12-31T20:43:53.008Z,15.08
2022-12-31T20:46:25.173Z,15.18
2022-12-31T20:48:53.827Z,15.20
2022-12-31T20:51:24.213Z,15.07
2022-12-31T20:53:56.570Z,15.03
2022-12-31T20:56:25.223Z,15.15
2022-12-31T20:58:57.245Z,15.12
2022-12-31T21:01:25.217Z,15.12
2022-12-31T21:04:04.983Z,15.16
2022-12-31T21:06:35.515Z,15.15
2022-12-31T21:09:04.760Z,15.11
2022-12-31T21:11:49.927Z,15.12
2022-12-31T21:14:16.619Z,15.28
2022-12-31T21:16:43.536Z,15.24
2022-12-31T21:19:10.193Z,15.23
2022-12-31T21:21:37.404Z,15.29
2022-12-31T21:24:04.292Z,15.32
2022-12-31T21:26:30.983Z,15.25
2022-12-31T21:28:57.862Z,15.20
2022-12-31T21:31:24.586Z,15.19
2022-12-31T21:33:51.337Z,15.20
2022-12-31T21:36:18.144Z,15.23
2022-12-31T21:38:45.133Z,15.18
2022-12-31T21:41:34.113Z,15.08
2022-12-31T21:44:07.789Z,15.06
2022-12-31T21:46:34.590Z,15.08
2022-12-31T21:49:01.522Z,15.06
2022-12-31T21:51:29.005Z,15.10
2022-12-31T21:53:55.775Z,15.02
2022-12-31T21:56:22.876Z,15.02
2022-12-31T21:59:16.900Z,14.97
2022-12-31T22:02:02.268Z,15.00
2022-12-31T22:05:00.805Z,15.00
2022-12-31T22:07:15.733Z,14.97
2022-12-31T22:09:42.350Z,14.89
2022-12-31T22:12:09.011Z,14.80
2022-12-31T22:14:35.651Z,14.77
2022-12-31T22:17:02.313Z,14.91
2022-12-31T22:19:28.906Z,14.87
2022-12-31T22:21:55.579Z,14.85
2022-12-31T22:24:22.257Z,14.88
2022-12-31T22:26:59.748Z,15.00
2022-12-31T22:29:46.316Z,15.05
2022-12-31T22:32:12.922Z,15.04
2022-12-31T22:34:39.527Z,15.06
2022-12-31T22:37:27.508Z,15.14
2022-12-31T22:39:52.826Z,15.12
2022-12-31T22:42:19.445Z,15.11
2022-12-31T22:44:46.026Z,15.15
2022-12-31T22:47:12.652Z,15.06
2022-12-31T22:49:39.257Z,15.00
2022-12-31T22:52:15.203Z,15.01
2022-12-31T22:54:41.838Z,15.07
2022-12-31T22:57:08.478Z,15.05
2022-12-31T22:59:43.769Z,15.17
2022-12-31T23:02:10.440Z,15.15
2022-12-31T23:04:37.036Z,15.07
2022-12-31T23:07:03.810Z,15.07
2022-12-31T23:09:48.969Z,14.97
2022-12-31T23:12:15.648Z,14.94
2022-12-31T23:15:00.795Z,14.86
2022-12-31T23:17:46.186Z,14.83
2022-12-31T23:20:37.887Z,14.86
2022-12-31T23:23:11.755Z,14.84
2022-12-31T23:25:50.574Z,14.78
2022-12-31T23:28:23.672Z,14.78
2022-12-31T23:30:51.733Z,14.88
2022-12-31T23:33:21.222Z,14.97
2022-12-31T23:35:48.667Z,14.90
2022-12-31T23:38:17.580Z,14.92
2022-12-31T23:40:44.585Z,14.79
2022-12-31T23:43:19.717Z,14.80
2022-12-31T23:45:46.449Z,14.86
2022-12-31T23:48:13.097Z,14.80
2022-12-31T23:50:52.429Z,14.82
2022-12-31T23:53:19.889Z,14.67
2022-12-31T23:55:46.736Z,14.73
2022-12-31T23:58:13.419Z,14.78
